Accueil
METAR-TAF:

METAR-TAF

Aéroports :

Deauville, France

Aéroport de Deauville-Normandie

latitude: 49-21-55N, longitude: 000-09-16E, altitude: 146 m

Observation

Le bulletin a été fait il y a 33 minutes, à 00:00 UTC
Vent 4 kt de est/nord-est, variant entre nord/nord-est et est
Température -2°C
Humidité 69%
Pression 1015 hPa
Visibilité 10 km ou plus
pas de nuages en-dessous de 1500 mètres et pas de cumulonimbus.

METAR: LFRG 240000Z AUTO 06004KT 030V090 CAVOK M02/M07 Q1015

Heure: 01:33 (00:33 UTC)

Prévision

Le bulletin a été fait il y a 10 heures et 33 minutes, à 14:00 UTC
Prévision valable du 23 à 15 UTC au 23 à 24 UTC
Vent 10 kt de est
Visibilité 10 km ou plus
pas de nuages en-dessous de 1500 mètres et pas de cumulonimbus.

TAF: LFRG 231400Z 2315/2324 09010KT CAVOK

Observations et prévisions météorologiques de plus de 4000 aéroports (messages METAR et TAF).

Les stations disponibles sont représentées par des disques jaunes et rouges sur la carte.

Passer la souris dessus pour voir le nom de la station.

Cliquer dessus pour voir les observations et prévisions météorologiques.

Pour changer de carte: cliquez sur les boutons verts avec une croix noire pour zoomer, sur le bouton vert avec un tiret pour effectuer un zoom arrière, ou sur les flèches vertes pour les cartes adjacentes.


METAR-TAF: